createdAt,value
2022-08-22T00:08:18.742Z,7.00
2022-08-22T00:18:51.349Z,5.60
2022-08-22T00:29:02.153Z,5.73
2022-08-22T00:39:11.145Z,5.83
2022-08-22T00:49:40.695Z,5.67
2022-08-22T00:59:44.910Z,5.60
2022-08-22T01:10:01.618Z,5.83
2022-08-22T01:20:33.537Z,5.57
2022-08-22T01:31:02.809Z,5.90
2022-08-22T01:41:29.052Z,5.50
2022-08-22T01:51:50.861Z,5.10
2022-08-22T02:02:04.030Z,5.20
2022-08-22T02:12:25.082Z,7.10
2022-08-22T02:22:37.090Z,7.03
2022-08-22T02:33:07.213Z,8.37
2022-08-22T02:43:20.714Z,7.30
2022-08-22T02:53:32.299Z,7.13
2022-08-22T03:03:39.905Z,7.13
2022-08-22T03:13:47.210Z,7.20
2022-08-22T03:23:55.109Z,7.87
2022-08-22T03:34:27.079Z,6.87
2022-08-22T03:45:19.826Z,7.03
2022-08-22T03:55:44.390Z,8.23
2022-08-22T04:06:12.710Z,6.90
2022-08-22T04:16:26.486Z,7.20
2022-08-22T04:26:42.476Z,7.20
2022-08-22T04:36:55.867Z,7.57
2022-08-22T04:47:13.159Z,7.80
2022-08-22T04:57:28.165Z,7.50
2022-08-22T05:07:39.822Z,7.30
2022-08-22T05:17:43.719Z,8.03
2022-08-22T05:27:53.299Z,7.47
2022-08-22T05:38:01.072Z,8.63
2022-08-22T05:48:16.168Z,8.10
2022-08-22T05:58:39.896Z,4.63
2022-08-22T06:08:55.298Z,4.87
2022-08-22T06:18:57.459Z,4.67
2022-08-22T06:29:45.606Z,5.57
2022-08-22T06:39:52.049Z,4.13
2022-08-22T06:49:58.985Z,4.07
2022-08-22T07:00:06.714Z,2.90
2022-08-22T07:10:12.794Z,3.03
2022-08-22T07:20:38.456Z,3.10
2022-08-22T07:30:58.081Z,5.50
2022-08-22T07:41:33.467Z,4.07
2022-08-22T07:51:48.291Z,2.72
2022-08-22T08:01:57.284Z,2.15
2022-08-22T08:12:02.262Z,2.33
2022-08-22T08:22:05.985Z,2.33
2022-08-22T08:32:10.974Z,1.80
2022-08-22T08:42:26.617Z,2.83
2022-08-22T08:53:04.270Z,2.08
2022-08-22T09:03:32.633Z,4.50
2022-08-22T09:14:05.689Z,2.30
2022-08-22T09:24:23.305Z,2.92
2022-08-22T09:34:35.251Z,2.85
2022-08-22T09:44:57.822Z,3.20
2022-08-22T09:55:11.718Z,2.67
2022-08-22T10:05:40.836Z,2.00
2022-08-22T10:15:49.945Z,1.75
2022-08-22T10:26:06.185Z,2.00
2022-08-22T10:36:12.944Z,3.17
2022-08-22T10:46:54.530Z,3.03
2022-08-22T10:57:21.232Z,2.38
2022-08-22T11:07:29.960Z,2.70
2022-08-22T11:17:53.961Z,2.15
2022-08-22T11:28:20.323Z,9.80
2022-08-22T11:38:36.776Z,2.55
2022-08-22T11:48:48.692Z,2.08
2022-08-22T11:59:04.973Z,1.33
2022-08-22T12:09:33.835Z,2.33
2022-08-22T12:20:15.110Z,1.40
2022-08-22T12:30:36.210Z,2.42
2022-08-22T12:41:01.778Z,1.67
2022-08-22T12:51:40.567Z,1.80
2022-08-22T13:01:48.355Z,2.50
2022-08-22T13:11:54.391Z,2.03
2022-08-22T13:22:04.780Z,4.30
2022-08-22T13:32:07.658Z,1.33
2022-08-22T13:42:29.815Z,3.00
2022-08-22T13:52:37.919Z,1.52
2022-08-22T14:02:48.778Z,1.38
2022-08-22T14:12:56.305Z,2.40
2022-08-22T14:23:07.112Z,1.90
2022-08-22T14:33:23.552Z,1.85
2022-08-22T14:43:31.937Z,2.10
2022-08-22T14:53:37.088Z,2.90
2022-08-22T15:03:40.788Z,2.33
2022-08-22T15:13:51.281Z,1.23
2022-08-22T15:24:02.026Z,2.40
2022-08-22T15:34:11.515Z,5.93
2022-08-22T15:44:31.048Z,5.80
2022-08-22T15:54:46.778Z,6.40
2022-08-22T16:05:23.042Z,4.57
2022-08-22T16:16:03.822Z,3.40
2022-08-22T16:26:08.069Z,5.10
2022-08-22T16:36:37.327Z,4.90
2022-08-22T16:46:43.999Z,5.57
2022-08-22T16:57:02.642Z,5.30
2022-08-22T17:07:26.809Z,7.50
2022-08-22T17:18:12.259Z,7.70
2022-08-22T17:28:20.063Z,6.43
2022-08-22T17:38:53.400Z,3.00
2022-08-22T17:49:12.177Z,2.00
2022-08-22T17:59:23.625Z,2.87
2022-08-22T18:09:57.257Z,3.57
2022-08-22T18:20:13.762Z,4.03
2022-08-22T18:30:20.553Z,5.00
2022-08-22T18:40:31.766Z,11.37
2022-08-22T18:50:36.455Z,11.77
2022-08-22T19:00:52.462Z,3.60
2022-08-22T19:11:13.447Z,3.70
2022-08-22T19:21:42.272Z,4.20
2022-08-22T19:31:50.438Z,3.93
2022-08-22T19:41:54.304Z,3.60
2022-08-22T19:52:16.516Z,4.23
2022-08-22T20:02:38.186Z,4.07
2022-08-22T20:13:02.296Z,4.33
2022-08-22T20:23:23.568Z,7.07
2022-08-22T20:33:29.316Z,5.87
2022-08-22T20:43:49.811Z,4.27
2022-08-22T20:53:52.934Z,4.53
2022-08-22T21:03:55.385Z,4.30
2022-08-22T21:13:56.932Z,4.90
2022-08-22T21:24:01.983Z,5.60
2022-08-22T21:34:03.587Z,5.10
2022-08-22T21:44:28.663Z,7.23
2022-08-22T21:54:40.397Z,4.50
2022-08-22T22:04:41.916Z,4.27
2022-08-22T22:14:46.616Z,5.33
2022-08-22T22:24:48.151Z,5.70
2022-08-22T22:34:49.640Z,5.67
2022-08-22T22:44:51.100Z,5.63
2022-08-22T22:54:52.835Z,10.47
2022-08-22T23:04:56.272Z,17.03
2022-08-22T23:14:57.754Z,14.43
2022-08-22T23:25:02.109Z,14.47
2022-08-22T23:35:04.803Z,14.97
2022-08-22T23:45:06.682Z,18.40
2022-08-22T23:55:08.730Z,23.77
